Denver, Missouri
Current Conditions -  °F | °C
As of 5:53 AM on Tuesday 27 Jan 2015 (Local Time) from KLWD Reporting Station
Clear Clear  
Wind Chill: 22°   Ceiling: Unl
Heat Index: 27°   Visibility: 10mi
Dew Point: 26°   Wind: 5mph
Humidity: 96%   Direction: 310°NW
Pressure: 30.07"   Gusts: NA
Location:  40.4°N, 94.32°W
Report Text: KLWD 271153Z AUTO 31004KT 10SM CLR M03/M03 A3007 RMK AO2 SLP193 T10281033 10017 21028 53009
Loading
Personal Weather Stations






























Interactive Weather Map New forecast layout! Learn more

10-Day Weather Forecast

Advertisements
Track Severe Weather on mobile